createdAt,value
2023-02-01T00:02:07.192Z,97689.91
2023-02-01T00:04:33.736Z,97696.31
2023-02-01T00:07:00.259Z,97695.41
2023-02-01T00:09:26.751Z,97690.44
2023-02-01T00:11:53.486Z,97684.59
2023-02-01T00:14:19.944Z,97685.53
2023-02-01T00:16:46.361Z,97687.75
2023-02-01T00:19:14.050Z,97682.22
2023-02-01T00:21:40.523Z,97693.47
2023-02-01T00:24:07.229Z,97694.66
2023-02-01T00:26:38.190Z,97701.56
2023-02-01T00:29:05.785Z,97698.84
2023-02-01T00:31:32.501Z,97695.63
2023-02-01T00:33:59.130Z,97707.44
2023-02-01T00:36:25.552Z,97701.34
2023-02-01T00:38:52.019Z,97710.53
2023-02-01T00:41:19.580Z,97701.69
2023-02-01T00:43:46.532Z,97705.56
2023-02-01T00:46:14.160Z,97707.50
2023-02-01T00:48:41.048Z,97706.50
2023-02-01T00:51:09.101Z,97706.88
2023-02-01T00:53:35.620Z,97710.06
2023-02-01T00:56:02.178Z,97711.03
2023-02-01T00:58:29.127Z,97711.56
2023-02-01T01:01:10.642Z,97708.91
2023-02-01T01:03:38.746Z,97706.19
2023-02-01T01:06:06.922Z,97702.94
2023-02-01T01:08:33.719Z,97696.25
2023-02-01T01:11:04.568Z,97689.50
2023-02-01T01:13:31.063Z,97679.00
2023-02-01T01:15:57.603Z,97679.16
2023-02-01T01:18:24.068Z,97669.59
2023-02-01T01:20:50.520Z,97659.09
2023-02-01T01:23:16.957Z,97644.03
2023-02-01T01:25:43.505Z,97639.94
2023-02-01T01:28:09.919Z,97640.63
2023-02-01T01:30:36.523Z,97618.72
2023-02-01T01:33:03.584Z,97617.94
2023-02-01T01:35:31.434Z,97625.09
2023-02-01T01:37:58.169Z,97623.03
2023-02-01T01:40:24.801Z,97631.78
2023-02-01T01:42:54.680Z,97631.56
2023-02-01T01:45:29.034Z,97642.81
2023-02-01T01:48:10.928Z,97636.56
2023-02-01T01:50:40.560Z,97638.63
2023-02-01T01:53:08.660Z,97635.00
2023-02-01T01:55:37.946Z,97630.41
2023-02-01T01:58:10.371Z,97627.53
2023-02-01T02:00:37.810Z,97631.56
2023-02-01T02:03:30.867Z,97638.00
2023-02-01T02:05:59.866Z,97650.41
2023-02-01T02:08:27.467Z,97642.66
2023-02-01T02:11:00.588Z,97640.78
2023-02-01T02:13:38.411Z,97661.88
2023-02-01T02:16:11.742Z,97638.00
2023-02-01T02:18:49.139Z,97642.66
2023-02-01T02:21:35.222Z,97643.75
2023-02-01T02:24:13.915Z,97648.25
2023-02-01T02:26:47.711Z,97642.78
2023-02-01T02:29:26.321Z,97621.06
2023-02-01T02:32:05.047Z,97616.41
2023-02-01T02:34:45.211Z,97617.97
2023-02-01T02:37:11.839Z,97611.47
2023-02-01T02:39:41.476Z,97615.66
2023-02-01T02:42:36.269Z,97608.06
2023-02-01T02:45:29.449Z,97606.50
2023-02-01T02:48:02.583Z,97614.72
2023-02-01T02:50:55.399Z,97621.41
2023-02-01T02:53:44.578Z,97618.75
2023-02-01T02:56:30.517Z,97621.94
2023-02-01T02:59:17.656Z,97637.53
2023-02-01T03:02:02.862Z,97624.88
2023-02-01T03:04:29.641Z,97610.81
2023-02-01T03:06:56.283Z,97598.72
2023-02-01T03:09:22.760Z,97609.41
2023-02-01T03:12:10.558Z,97598.88
2023-02-01T03:14:37.526Z,97607.72
2023-02-01T03:17:07.682Z,97606.78
2023-02-01T03:19:37.363Z,97594.94
2023-02-01T03:22:09.408Z,97597.53
2023-02-01T03:24:56.162Z,97599.94
2023-02-01T03:27:24.781Z,97607.06
2023-02-01T03:30:02.618Z,97606.47
2023-02-01T03:32:29.548Z,97601.50
2023-02-01T03:34:56.524Z,97601.03
2023-02-01T03:37:25.934Z,97594.50
2023-02-01T03:40:03.716Z,97605.38
2023-02-01T03:42:38.099Z,97600.69
2023-02-01T03:45:13.776Z,97607.41
2023-02-01T03:47:46.258Z,97606.66
2023-02-01T03:50:16.683Z,97612.69
2023-02-01T03:52:45.101Z,97622.00
2023-02-01T03:55:15.506Z,97628.19
2023-02-01T03:57:45.191Z,97621.38
2023-02-01T04:00:19.117Z,97638.88
2023-02-01T04:02:45.675Z,97639.06
2023-02-01T04:05:12.614Z,97631.31
2023-02-01T04:07:44.951Z,97643.91
2023-02-01T04:10:12.202Z,97634.34
2023-02-01T04:12:38.648Z,97640.34
2023-02-01T04:15:05.442Z,97628.66
2023-02-01T04:17:31.937Z,97630.00
2023-02-01T04:19:58.407Z,97637.34
2023-02-01T04:22:24.924Z,97634.25
2023-02-01T04:24:51.384Z,97636.28
2023-02-01T04:27:17.832Z,97632.63
2023-02-01T04:29:46.140Z,97637.06
2023-02-01T04:32:12.675Z,97654.25
2023-02-01T04:34:39.208Z,97630.25
2023-02-01T04:37:05.705Z,97624.63
2023-02-01T04:39:32.181Z,97643.72
2023-02-01T04:41:58.621Z,97641.69
2023-02-01T04:44:25.327Z,97621.53
2023-02-01T04:46:51.936Z,97628.53
2023-02-01T04:49:18.385Z,97647.69
2023-02-01T04:51:44.924Z,97632.22
2023-02-01T04:54:14.503Z,97624.78
2023-02-01T04:56:41.431Z,97640.47
2023-02-01T04:59:07.916Z,97624.94
2023-02-01T05:01:34.430Z,97615.19
2023-02-01T05:04:00.879Z,97620.59
2023-02-01T05:06:27.399Z,97611.31
2023-02-01T05:08:55.650Z,97613.88
2023-02-01T05:11:40.657Z,97616.38
2023-02-01T05:14:07.254Z,97634.41
2023-02-01T05:16:33.717Z,97635.31
2023-02-01T05:19:00.176Z,97628.31
2023-02-01T05:21:26.745Z,97638.25
2023-02-01T05:24:13.717Z,97636.06
2023-02-01T05:26:41.563Z,97639.03
2023-02-01T05:29:08.752Z,97630.22
2023-02-01T05:31:35.450Z,97628.81
2023-02-01T05:34:02.080Z,97641.84
2023-02-01T05:36:28.550Z,97635.63
2023-02-01T05:38:55.143Z,97631.97
2023-02-01T05:41:21.947Z,97650.44
2023-02-01T05:43:48.403Z,97641.59
2023-02-01T05:46:14.982Z,97640.56
2023-02-01T05:48:41.617Z,97632.97
2023-02-01T05:51:08.522Z,97645.53
2023-02-01T05:53:34.984Z,97638.69
2023-02-01T05:56:01.663Z,97641.34
2023-02-01T06:00:54.593Z,97647.81
2023-02-01T06:03:21.154Z,97642.59
2023-02-01T06:05:48.668Z,97647.56
2023-02-01T06:08:15.295Z,97650.00
2023-02-01T06:10:41.814Z,97655.44
2023-02-01T06:13:08.484Z,97654.03
2023-02-01T06:15:35.424Z,97646.16
2023-02-01T06:18:02.007Z,97650.94
2023-02-01T06:20:28.602Z,97650.63
2023-02-01T06:22:55.083Z,97641.19
2023-02-01T06:25:22.292Z,97642.28
2023-02-01T06:27:49.233Z,97644.13
2023-02-01T06:30:15.771Z,97644.94
2023-02-01T06:32:43.387Z,97645.41
2023-02-01T06:35:17.016Z,97649.00
2023-02-01T06:37:44.335Z,97653.34
2023-02-01T06:40:11.104Z,97670.19
2023-02-01T06:42:37.560Z,97644.97
2023-02-01T06:45:04.256Z,97657.94
2023-02-01T06:47:30.829Z,97667.31
2023-02-01T06:49:57.266Z,97675.94
2023-02-01T06:52:23.767Z,97667.72
2023-02-01T06:54:50.180Z,97682.66
2023-02-01T06:57:16.622Z,97675.25
2023-02-01T06:59:43.132Z,97677.59
2023-02-01T07:02:11.655Z,97680.84
2023-02-01T07:04:38.558Z,97682.38
2023-02-01T07:07:05.089Z,97677.00
2023-02-01T07:09:31.609Z,97675.91
2023-02-01T07:11:58.022Z,97671.44
2023-02-01T07:14:24.450Z,97677.53
2023-02-01T07:16:51.823Z,97681.19
2023-02-01T07:19:18.322Z,97668.75
2023-02-01T07:21:44.760Z,97659.13
2023-02-01T07:24:11.226Z,97656.94
2023-02-01T07:26:37.718Z,97647.09
2023-02-01T07:29:04.193Z,97649.22
2023-02-01T07:31:30.700Z,97642.41
2023-02-01T07:33:59.119Z,97648.97
2023-02-01T07:36:25.680Z,97644.78
2023-02-01T07:38:55.316Z,97647.88
2023-02-01T07:41:22.969Z,97652.59
2023-02-01T07:43:51.616Z,97666.09
2023-02-01T07:46:18.185Z,97669.69
2023-02-01T07:48:44.696Z,97656.00
2023-02-01T07:51:12.709Z,97659.31
2023-02-01T07:53:39.155Z,97663.53
2023-02-01T07:56:11.056Z,97664.00
2023-02-01T07:58:37.533Z,97671.66
2023-02-01T08:01:30.125Z,97673.00
2023-02-01T08:04:00.412Z,97667.09
2023-02-01T08:06:27.769Z,97665.84
2023-02-01T08:08:55.067Z,97677.31
2023-02-01T08:11:22.738Z,97680.88
2023-02-01T08:13:49.216Z,97670.75
2023-02-01T08:16:16.796Z,97677.97
2023-02-01T08:18:43.791Z,97676.84
2023-02-01T08:21:12.078Z,97668.66
2023-02-01T08:23:39.133Z,97676.00
2023-02-01T08:26:11.530Z,97666.72
2023-02-01T08:28:38.827Z,97658.00
2023-02-01T08:31:06.249Z,97658.22
2023-02-01T08:33:32.797Z,97668.38
2023-02-01T08:36:01.174Z,97662.97
2023-02-01T08:38:27.612Z,97659.16
2023-02-01T08:40:54.090Z,97646.50
2023-02-01T08:43:20.632Z,97652.84
2023-02-01T08:45:47.285Z,97647.63
2023-02-01T08:48:13.820Z,97652.34
2023-02-01T08:50:40.317Z,97640.94
2023-02-01T08:53:06.790Z,97653.50
2023-02-01T08:55:33.313Z,97648.91
2023-02-01T08:57:59.865Z,97641.25
2023-02-01T09:00:26.561Z,97637.72
2023-02-01T09:02:53.102Z,97638.47
2023-02-01T09:05:23.113Z,97643.34
2023-02-01T09:07:49.822Z,97645.47
2023-02-01T09:10:18.892Z,97646.09
2023-02-01T09:12:47.464Z,97635.91
2023-02-01T09:15:13.919Z,97630.47
2023-02-01T09:17:42.716Z,97633.16
2023-02-01T09:20:10.013Z,97634.31
2023-02-01T09:22:36.471Z,97629.56
2023-02-01T09:25:03.087Z,97629.91
2023-02-01T09:27:29.624Z,97628.94
2023-02-01T09:29:56.125Z,97626.53
2023-02-01T09:32:23.879Z,97624.94
2023-02-01T09:34:50.936Z,97634.28
2023-02-01T09:37:17.376Z,97626.06
2023-02-01T09:39:44.075Z,97627.13
2023-02-01T09:42:19.763Z,97624.59
2023-02-01T09:44:56.502Z,97623.41
2023-02-01T09:47:24.357Z,97611.50
2023-02-01T09:49:56.619Z,97611.28
2023-02-01T09:52:28.813Z,97599.38
2023-02-01T09:55:01.709Z,97607.06
2023-02-01T09:57:50.431Z,97600.91
2023-02-01T10:00:28.277Z,97599.06
2023-02-01T10:02:55.849Z,97585.75
2023-02-01T10:05:41.066Z,97586.03
2023-02-01T10:08:16.732Z,97565.03
2023-02-01T10:10:50.488Z,97563.09
2023-02-01T10:13:28.600Z,97577.88
2023-02-01T10:16:18.859Z,97569.41
2023-02-01T10:18:45.435Z,97560.22
2023-02-01T10:21:19.467Z,97564.38
2023-02-01T10:24:16.807Z,97559.28
2023-02-01T10:26:46.077Z,97548.53
2023-02-01T10:29:17.490Z,97545.28
2023-02-01T10:31:44.270Z,97544.84
2023-02-01T10:34:16.756Z,97540.41
2023-02-01T10:36:46.892Z,97526.47
2023-02-01T10:39:15.277Z,97525.34
2023-02-01T10:41:41.818Z,97521.13
2023-02-01T10:44:16.924Z,97524.19
2023-02-01T10:46:43.531Z,97511.34
2023-02-01T10:49:14.682Z,97507.22
2023-02-01T10:51:48.250Z,97498.84
2023-02-01T10:54:21.350Z,97492.88
2023-02-01T10:56:48.614Z,97491.19
2023-02-01T10:59:16.366Z,97488.88
2023-02-01T11:01:46.204Z,97496.81
2023-02-01T11:04:14.687Z,97492.38
2023-02-01T11:06:42.604Z,97481.09
2023-02-01T11:09:09.088Z,97481.63
2023-02-01T11:11:54.563Z,97489.22
2023-02-01T11:14:26.816Z,97480.22
2023-02-01T11:16:58.915Z,97476.88
2023-02-01T11:19:25.350Z,97477.59
2023-02-01T11:21:52.635Z,97466.63
2023-02-01T11:24:21.884Z,97456.03
2023-02-01T11:26:48.509Z,97443.81
2023-02-01T11:29:18.667Z,97433.66
2023-02-01T11:31:46.156Z,97436.66
2023-02-01T11:34:17.314Z,97411.03
2023-02-01T11:36:46.196Z,97419.56
2023-02-01T11:39:15.671Z,97407.44
2023-02-01T11:41:43.711Z,97394.06
2023-02-01T11:44:24.564Z,97389.56
2023-02-01T11:46:51.137Z,97399.03
2023-02-01T11:49:25.224Z,97406.13
2023-02-01T11:51:57.832Z,97373.03
2023-02-01T11:54:38.625Z,97388.50
2023-02-01T11:57:12.867Z,97379.56
2023-02-01T11:59:56.835Z,97390.00
2023-02-01T12:02:46.621Z,97376.47
2023-02-01T12:05:20.480Z,97367.72
2023-02-01T12:07:53.085Z,97368.81
2023-02-01T12:10:38.267Z,97376.50
2023-02-01T12:13:23.245Z,97381.56
2023-02-01T12:15:57.035Z,97362.84
2023-02-01T12:18:42.216Z,97361.59
2023-02-01T12:21:23.474Z,97344.63
2023-02-01T12:24:12.907Z,97361.94
2023-02-01T12:26:49.172Z,97362.59
2023-02-01T12:29:34.450Z,97370.44
2023-02-01T12:32:19.410Z,97361.31
2023-02-01T12:34:59.525Z,97364.91
2023-02-01T12:37:56.552Z,97379.88
2023-02-01T12:40:29.568Z,97391.59
2023-02-01T12:43:05.478Z,97372.44
2023-02-01T12:45:34.807Z,97381.56
2023-02-01T12:48:06.957Z,97365.09
2023-02-01T12:51:02.955Z,97381.41
2023-02-01T12:53:49.644Z,97378.31
2023-02-01T12:56:20.220Z,97362.50
2023-02-01T12:58:51.952Z,97377.13
2023-02-01T13:01:22.596Z,97376.78
2023-02-01T13:03:58.635Z,97376.59
2023-02-01T13:06:28.607Z,97380.38
2023-02-01T13:09:01.163Z,97354.19
2023-02-01T13:11:41.387Z,97396.84
2023-02-01T13:14:26.641Z,97384.38
2023-02-01T13:16:57.377Z,97385.16
2023-02-01T13:19:27.333Z,97391.78
2023-02-01T13:21:57.101Z,97404.78
2023-02-01T13:24:28.758Z,97373.34
2023-02-01T13:26:56.263Z,97398.31
2023-02-01T13:29:24.766Z,97389.13
2023-02-01T13:32:02.263Z,97390.69
2023-02-01T13:34:31.997Z,97392.16
2023-02-01T13:37:17.246Z,97396.84
2023-02-01T13:39:50.475Z,97393.91
2023-02-01T13:42:19.795Z,97400.44
2023-02-01T13:45:06.529Z,97392.47
2023-02-01T13:47:35.152Z,97409.47
2023-02-01T13:50:04.560Z,97400.88
2023-02-01T13:52:45.159Z,97399.78
2023-02-01T13:55:21.092Z,97405.88
2023-02-01T13:57:49.066Z,97392.78
2023-02-01T14:00:34.108Z,97414.66
2023-02-01T14:03:01.804Z,97414.22
2023-02-01T14:05:28.226Z,97409.50
2023-02-01T14:08:06.910Z,97414.41
2023-02-01T14:10:45.822Z,97411.44
2023-02-01T14:13:27.480Z,97418.31
2023-02-01T14:16:14.294Z,97417.44
2023-02-01T14:18:46.434Z,97426.72
2023-02-01T14:21:22.834Z,97435.38
2023-02-01T14:24:05.257Z,97430.25
2023-02-01T14:26:34.540Z,97441.13
2023-02-01T14:29:20.762Z,97448.03
2023-02-01T14:31:47.750Z,97461.94
2023-02-01T14:34:17.485Z,97457.22
2023-02-01T14:36:45.567Z,97450.38
2023-02-01T14:39:23.604Z,97459.53
2023-02-01T14:41:53.839Z,97463.78
2023-02-01T14:44:30.689Z,97462.63
2023-02-01T14:47:11.522Z,97467.31
2023-02-01T14:49:48.072Z,97474.66
2023-02-01T14:52:16.975Z,97478.56
2023-02-01T14:54:45.825Z,97493.47
2023-02-01T14:57:19.097Z,97491.44
2023-02-01T14:59:46.332Z,97484.16
2023-02-01T15:02:22.539Z,97499.91
2023-02-01T15:04:54.229Z,97491.94
2023-02-01T15:07:22.075Z,97492.78
2023-02-01T15:09:49.749Z,97485.38
2023-02-01T15:12:27.891Z,97494.28
2023-02-01T15:15:10.616Z,97491.69
2023-02-01T15:17:37.059Z,97487.22
2023-02-01T15:20:16.240Z,97498.84
2023-02-01T15:22:53.317Z,97491.84
2023-02-01T15:25:21.757Z,97497.38
2023-02-01T15:27:48.630Z,97505.41
2023-02-01T15:30:20.227Z,97500.75
2023-02-01T15:32:46.983Z,97502.53
2023-02-01T15:35:32.383Z,97505.28
2023-02-01T15:38:17.632Z,97508.69
2023-02-01T15:41:14.422Z,97512.03
2023-02-01T15:43:56.060Z,97513.91
2023-02-01T15:46:23.694Z,97527.88
2023-02-01T15:48:52.023Z,97521.09
2023-02-01T15:51:30.405Z,97516.31
2023-02-01T15:53:56.871Z,97526.22
2023-02-01T15:56:25.239Z,97530.53
2023-02-01T15:58:53.407Z,97541.75
2023-02-01T16:01:20.673Z,97544.19
2023-02-01T16:03:49.442Z,97544.34
2023-02-01T16:06:21.971Z,97556.88
2023-02-01T16:08:53.101Z,97536.28
2023-02-01T16:11:24.742Z,97559.28
2023-02-01T16:13:51.422Z,97558.44
2023-02-01T16:16:18.275Z,97551.97
2023-02-01T16:18:45.629Z,97556.28
2023-02-01T16:21:12.405Z,97570.16
2023-02-01T16:23:38.880Z,97577.75
2023-02-01T16:26:06.819Z,97581.47
2023-02-01T16:28:33.742Z,97587.69
2023-02-01T16:31:00.878Z,97591.63
2023-02-01T16:33:27.820Z,97590.50
2023-02-01T16:35:58.123Z,97581.03
2023-02-01T16:38:24.787Z,97583.88
2023-02-01T16:40:51.458Z,97582.34
2023-02-01T16:43:24.997Z,97586.56
2023-02-01T16:45:52.719Z,97573.88
2023-02-01T16:48:23.959Z,97579.53
2023-02-01T16:50:52.375Z,97584.00
2023-02-01T16:53:19.788Z,97584.81
2023-02-01T16:55:48.620Z,97587.78
2023-02-01T16:58:16.526Z,97596.16
2023-02-01T17:00:43.529Z,97581.75
2023-02-01T17:03:11.087Z,97580.88
2023-02-01T17:05:37.510Z,97582.53
2023-02-01T17:08:06.578Z,97578.78
2023-02-01T17:10:34.289Z,97584.13
2023-02-01T17:13:01.261Z,97577.88
2023-02-01T17:15:29.748Z,97578.88
2023-02-01T17:17:57.636Z,97575.53
2023-02-01T17:20:25.165Z,97570.94
2023-02-01T17:22:53.010Z,97574.31
2023-02-01T17:25:21.528Z,97575.47
2023-02-01T17:27:48.676Z,97578.44
2023-02-01T17:30:15.877Z,97579.38
2023-02-01T17:32:42.536Z,97578.81
2023-02-01T17:35:19.999Z,97580.81
2023-02-01T17:37:46.508Z,97576.28
2023-02-01T17:40:13.135Z,97573.69
2023-02-01T17:42:39.644Z,97572.25
2023-02-01T17:45:27.003Z,97565.19
2023-02-01T17:47:53.591Z,97565.28
2023-02-01T17:50:20.045Z,97561.66
2023-02-01T17:52:46.464Z,97563.94
2023-02-01T17:55:19.895Z,97566.03
2023-02-01T17:57:46.695Z,97570.13
2023-02-01T18:00:13.738Z,97565.69
2023-02-01T18:02:40.288Z,97568.47
2023-02-01T18:05:28.359Z,97567.81
2023-02-01T18:07:54.801Z,97559.66
2023-02-01T18:10:21.267Z,97568.44
2023-02-01T18:12:47.829Z,97568.44
2023-02-01T18:15:14.299Z,97563.34
2023-02-01T18:17:40.765Z,97573.06
2023-02-01T18:20:07.489Z,97575.16
2023-02-01T18:22:33.924Z,97574.75
2023-02-01T18:25:00.387Z,97583.91
2023-02-01T18:27:28.089Z,97581.34
2023-02-01T18:29:54.681Z,97577.19
2023-02-01T18:32:21.095Z,97580.75
2023-02-01T18:34:47.503Z,97576.25
2023-02-01T18:37:14.075Z,97583.53
2023-02-01T18:39:40.571Z,97575.03
2023-02-01T18:42:10.180Z,97584.47
2023-02-01T18:44:36.819Z,97568.16
2023-02-01T18:47:03.256Z,97580.28
2023-02-01T18:49:29.690Z,97580.88
2023-02-01T18:51:56.136Z,97585.03
2023-02-01T18:54:24.602Z,97576.47
2023-02-01T18:56:51.013Z,97578.50
2023-02-01T18:59:18.639Z,97567.97
2023-02-01T19:01:45.235Z,97571.00
2023-02-01T19:04:17.423Z,97577.50
2023-02-01T19:06:46.385Z,97577.94
2023-02-01T19:09:12.799Z,97580.88
2023-02-01T19:11:39.263Z,97580.94
2023-02-01T19:14:06.963Z,97584.16
2023-02-01T19:16:36.009Z,97591.84
2023-02-01T19:19:02.423Z,97581.66
2023-02-01T19:21:29.027Z,97597.47
2023-02-01T19:23:55.507Z,97596.31
2023-02-01T19:26:22.412Z,97589.69
2023-02-01T19:28:49.083Z,97588.03
2023-02-01T19:31:16.712Z,97600.16
2023-02-01T19:33:43.606Z,97601.78
2023-02-01T19:36:10.901Z,97611.44
2023-02-01T19:38:37.912Z,97611.84
2023-02-01T19:41:04.441Z,97620.16
2023-02-01T19:43:30.909Z,97611.19
2023-02-01T19:45:57.488Z,97625.72
2023-02-01T19:48:24.514Z,97624.31
2023-02-01T19:50:51.288Z,97626.06
2023-02-01T19:53:19.307Z,97621.94
2023-02-01T19:55:46.038Z,97616.66
2023-02-01T19:58:12.551Z,97624.66
2023-02-01T20:00:38.135Z,97630.44
2023-02-01T20:03:04.728Z,97628.56
2023-02-01T20:05:31.243Z,97624.97
2023-02-01T20:07:57.684Z,97622.38
2023-02-01T20:10:24.344Z,97617.75
2023-02-01T20:12:50.775Z,97620.91
2023-02-01T20:15:17.367Z,97619.94
2023-02-01T20:17:44.631Z,97622.13
2023-02-01T20:20:11.253Z,97631.84
2023-02-01T20:22:37.674Z,97629.91
2023-02-01T20:25:04.339Z,97623.56
2023-02-01T20:27:31.662Z,97638.66
2023-02-01T20:29:58.144Z,97629.50
2023-02-01T20:32:24.666Z,97635.47
2023-02-01T20:34:54.226Z,97637.09
2023-02-01T20:37:20.987Z,97633.91
2023-02-01T20:39:47.407Z,97631.44
2023-02-01T20:42:13.924Z,97631.81
2023-02-01T20:44:40.384Z,97629.91
2023-02-01T20:47:06.787Z,97636.22
2023-02-01T20:49:34.626Z,97640.22
2023-02-01T20:52:01.083Z,97644.94
2023-02-01T20:54:27.602Z,97640.53
2023-02-01T20:56:54.162Z,97639.75
2023-02-01T20:59:20.726Z,97635.91
2023-02-01T21:01:53.417Z,97633.97
2023-02-01T21:04:23.941Z,97644.66
2023-02-01T21:06:50.390Z,97639.03
2023-02-01T21:09:17.068Z,97648.53
2023-02-01T21:11:44.192Z,97639.97
2023-02-01T21:14:11.169Z,97642.59
2023-02-01T21:16:37.810Z,97643.03
2023-02-01T21:19:04.697Z,97643.75
2023-02-01T21:21:31.472Z,97647.09
2023-02-01T21:23:58.296Z,97636.34
2023-02-01T21:26:25.670Z,97633.56
2023-02-01T21:28:52.937Z,97625.91
2023-02-01T21:31:22.001Z,97633.31
2023-02-01T21:33:49.133Z,97639.13
2023-02-01T21:36:19.499Z,97622.09
2023-02-01T21:38:46.940Z,97629.13
2023-02-01T21:41:31.918Z,97629.75
2023-02-01T21:43:58.412Z,97626.47
2023-02-01T21:46:24.838Z,97630.94
2023-02-01T21:49:05.325Z,97633.91
2023-02-01T21:51:35.035Z,97639.84
2023-02-01T21:54:02.020Z,97629.31
2023-02-01T21:56:28.582Z,97629.22
2023-02-01T21:58:55.302Z,97620.19
2023-02-01T22:01:21.974Z,97619.34
2023-02-01T22:03:49.251Z,97615.31
2023-02-01T22:06:24.567Z,97610.38
2023-02-01T22:08:51.075Z,97609.31
2023-02-01T22:11:17.563Z,97621.03
2023-02-01T22:13:43.976Z,97613.84
2023-02-01T22:16:10.489Z,97615.56
2023-02-01T22:18:36.991Z,97613.84
2023-02-01T22:21:03.519Z,97621.84
2023-02-01T22:23:29.922Z,97625.59
2023-02-01T22:26:00.269Z,97627.19
2023-02-01T22:28:32.150Z,97623.91
2023-02-01T22:31:04.355Z,97629.97
2023-02-01T22:33:31.087Z,97622.94
2023-02-01T22:35:57.500Z,97630.19
2023-02-01T22:38:24.249Z,97627.41
2023-02-01T22:41:00.819Z,97627.00
2023-02-01T22:43:27.654Z,97619.94
2023-02-01T22:45:54.566Z,97616.13
2023-02-01T22:48:21.264Z,97610.81
2023-02-01T22:50:47.727Z,97615.59
2023-02-01T22:53:14.169Z,97612.72
2023-02-01T22:55:45.431Z,97595.25
2023-02-01T22:58:12.723Z,97593.16
2023-02-01T23:00:39.445Z,97592.31
2023-02-01T23:03:08.881Z,97596.53
2023-02-01T23:05:35.369Z,97588.69
2023-02-01T23:08:02.092Z,97583.47
2023-02-01T23:10:28.518Z,97580.16
2023-02-01T23:12:54.954Z,97584.22
2023-02-01T23:15:21.618Z,97579.53
2023-02-01T23:17:48.250Z,97563.25
2023-02-01T23:20:16.444Z,97576.03
2023-02-01T23:22:43.611Z,97577.94
2023-02-01T23:25:11.162Z,97566.97
2023-02-01T23:27:37.610Z,97558.16
2023-02-01T23:30:05.751Z,97563.13
2023-02-01T23:32:33.399Z,97565.91
2023-02-01T23:35:00.263Z,97547.84
2023-02-01T23:37:27.187Z,97549.41
2023-02-01T23:39:53.654Z,97542.75
2023-02-01T23:42:20.406Z,97529.34
2023-02-01T23:44:46.871Z,97528.69
2023-02-01T23:47:13.333Z,97520.19
2023-02-01T23:49:39.862Z,97534.03
2023-02-01T23:52:06.787Z,97534.25
2023-02-01T23:54:33.298Z,97536.03
2023-02-01T23:56:59.821Z,97538.06
2023-02-01T23:59:30.574Z,97534.00
